sensor_id;sensor_type;location;lat;lon;timestamp;pressure;altitude;pressure_sealevel;temperature;humidity
21401;BME280;18038;50.166;18.908;2023-05-20T00:05:06;98845.78;;;8.15;85.46
21401;BME280;18038;50.166;18.908;2023-05-20T00:08:14;98854.88;;;8.04;85.91
21401;BME280;18038;50.166;18.908;2023-05-20T00:11:37;98856.75;;;8.12;85.35
21401;BME280;18038;50.166;18.908;2023-05-20T00:14:58;98848.22;;;8.00;85.47
21401;BME280;18038;50.166;18.908;2023-05-20T00:18:19;98847.00;;;7.95;86.17
21401;BME280;18038;50.166;18.908;2023-05-20T00:21:47;98853.66;;;7.91;86.27
21401;BME280;18038;50.166;18.908;2023-05-20T00:25:02;98844.66;;;7.92;86.16
21401;BME280;18038;50.166;18.908;2023-05-20T00:28:11;98842.31;;;7.88;86.57
21401;BME280;18038;50.166;18.908;2023-05-20T00:31:18;98836.53;;;7.93;86.30
21401;BME280;18038;50.166;18.908;2023-05-20T00:34:24;98840.16;;;7.92;86.45
21401;BME280;18038;50.166;18.908;2023-05-20T00:37:31;98843.13;;;8.15;85.86
21401;BME280;18038;50.166;18.908;2023-05-20T00:40:37;98843.16;;;8.23;85.55
21401;BME280;18038;50.166;18.908;2023-05-20T00:43:46;98842.97;;;8.17;85.33
21401;BME280;18038;50.166;18.908;2023-05-20T00:46:53;98832.13;;;8.10;85.74
21401;BME280;18038;50.166;18.908;2023-05-20T00:50:16;98827.03;;;7.91;86.80
21401;BME280;18038;50.166;18.908;2023-05-20T00:53:45;98821.44;;;8.02;86.50
21401;BME280;18038;50.166;18.908;2023-05-20T00:57:10;98827.28;;;8.05;86.00
21401;BME280;18038;50.166;18.908;2023-05-20T01:00:34;98824.56;;;7.97;86.71
21401;BME280;18038;50.166;18.908;2023-05-20T01:03:55;98823.38;;;7.92;87.16
21401;BME280;18038;50.166;18.908;2023-05-20T01:07:04;98826.72;;;7.94;86.48
21401;BME280;18038;50.166;18.908;2023-05-20T01:10:11;98822.47;;;8.09;86.46
21401;BME280;18038;50.166;18.908;2023-05-20T01:13:28;98822.28;;;8.02;86.24
21401;BME280;18038;50.166;18.908;2023-05-20T01:16:55;98818.75;;;7.94;86.73
21401;BME280;18038;50.166;18.908;2023-05-20T01:20:14;98813.97;;;8.05;86.42
21401;BME280;18038;50.166;18.908;2023-05-20T01:23:23;98811.16;;;8.07;86.35
21401;BME280;18038;50.166;18.908;2023-05-20T01:26:38;98807.38;;;8.18;86.20
21401;BME280;18038;50.166;18.908;2023-05-20T01:29:49;98818.81;;;8.10;86.13
21401;BME280;18038;50.166;18.908;2023-05-20T01:33:01;98827.47;;;8.12;86.27
21401;BME280;18038;50.166;18.908;2023-05-20T01:36:14;98830.84;;;8.22;86.21
21401;BME280;18038;50.166;18.908;2023-05-20T01:39:29;98830.19;;;8.20;85.79
21401;BME280;18038;50.166;18.908;2023-05-20T01:42:40;98824.16;;;8.18;85.73
21401;BME280;18038;50.166;18.908;2023-05-20T01:45:48;98827.72;;;8.27;85.18
21401;BME280;18038;50.166;18.908;2023-05-20T01:48:56;98820.91;;;8.24;85.78
21401;BME280;18038;50.166;18.908;2023-05-20T01:52:03;98823.72;;;8.31;85.89
21401;BME280;18038;50.166;18.908;2023-05-20T01:55:14;98821.53;;;8.26;85.73
21401;BME280;18038;50.166;18.908;2023-05-20T01:58:27;98810.88;;;8.18;85.92
21401;BME280;18038;50.166;18.908;2023-05-20T02:01:41;98817.06;;;8.27;85.72
21401;BME280;18038;50.166;18.908;2023-05-20T02:04:53;98818.38;;;8.23;85.59
21401;BME280;18038;50.166;18.908;2023-05-20T02:08:00;98815.06;;;8.29;85.50
21401;BME280;18038;50.166;18.908;2023-05-20T02:11:08;98810.88;;;8.18;85.50
21401;BME280;18038;50.166;18.908;2023-05-20T02:14:15;98814.50;;;8.09;86.16
21401;BME280;18038;50.166;18.908;2023-05-20T02:17:31;98816.59;;;7.97;86.74
21401;BME280;18038;50.166;18.908;2023-05-20T02:20:38;98824.16;;;8.18;85.91
21401;BME280;18038;50.166;18.908;2023-05-20T02:23:45;98825.56;;;8.30;85.62
21401;BME280;18038;50.166;18.908;2023-05-20T02:26:55;98827.41;;;8.30;85.16
21401;BME280;18038;50.166;18.908;2023-05-20T02:30:01;98822.16;;;8.12;85.89
21401;BME280;18038;50.166;18.908;2023-05-20T02:33:09;98818.13;;;8.08;86.34
21401;BME280;18038;50.166;18.908;2023-05-20T02:36:21;98826.84;;;8.18;86.66
21401;BME280;18038;50.166;18.908;2023-05-20T02:39:28;98825.84;;;8.19;86.11
21401;BME280;18038;50.166;18.908;2023-05-20T02:42:37;98834.00;;;8.18;86.09
21401;BME280;18038;50.166;18.908;2023-05-20T02:45:44;98838.91;;;8.04;86.02
21401;BME280;18038;50.166;18.908;2023-05-20T02:48:50;98836.91;;;7.98;86.44
21401;BME280;18038;50.166;18.908;2023-05-20T02:52:12;98837.78;;;7.81;87.14
21401;BME280;18038;50.166;18.908;2023-05-20T02:55:35;98834.63;;;7.77;87.55
21401;BME280;18038;50.166;18.908;2023-05-20T02:59:00;98833.75;;;7.69;87.67
21401;BME280;18038;50.166;18.908;2023-05-20T03:02:31;98834.25;;;7.72;87.98
21401;BME280;18038;50.166;18.908;2023-05-20T03:05:38;98837.19;;;7.87;88.03
21401;BME280;18038;50.166;18.908;2023-05-20T03:08:51;98827.50;;;7.86;87.37
21401;BME280;18038;50.166;18.908;2023-05-20T03:12:01;98831.38;;;7.92;87.29
21401;BME280;18038;50.166;18.908;2023-05-20T03:15:10;98842.25;;;8.06;87.12
21401;BME280;18038;50.166;18.908;2023-05-20T03:18:17;98834.91;;;8.00;86.79
21401;BME280;18038;50.166;18.908;2023-05-20T03:21:38;98840.56;;;8.05;87.04
21401;BME280;18038;50.166;18.908;2023-05-20T03:25:00;98840.06;;;8.02;86.70
21401;BME280;18038;50.166;18.908;2023-05-20T03:28:35;98843.19;;;7.97;87.33
21401;BME280;18038;50.166;18.908;2023-05-20T03:32:00;98838.66;;;7.89;87.81
21401;BME280;18038;50.166;18.908;2023-05-20T03:35:27;98844.50;;;8.19;86.91
21401;BME280;18038;50.166;18.908;2023-05-20T03:38:53;98839.53;;;8.24;86.53
21401;BME280;18038;50.166;18.908;2023-05-20T03:42:00;98830.50;;;8.17;86.29
21401;BME280;18038;50.166;18.908;2023-05-20T03:45:07;98828.56;;;7.93;88.19
21401;BME280;18038;50.166;18.908;2023-05-20T03:48:29;98838.88;;;7.96;88.09
21401;BME280;18038;50.166;18.908;2023-05-20T03:51:35;98838.59;;;8.07;88.20
21401;BME280;18038;50.166;18.908;2023-05-20T03:54:46;98840.78;;;8.12;87.76
21401;BME280;18038;50.166;18.908;2023-05-20T03:58:25;98846.13;;;8.20;86.70
21401;BME280;18038;50.166;18.908;2023-05-20T04:05:36;98833.00;;;8.19;86.88
21401;BME280;18038;50.166;18.908;2023-05-20T04:09:07;98840.38;;;8.33;86.63
21401;BME280;18038;50.166;18.908;2023-05-20T04:12:28;98842.16;;;8.16;86.68
21401;BME280;18038;50.166;18.908;2023-05-20T04:15:49;98844.63;;;8.18;86.81
21401;BME280;18038;50.166;18.908;2023-05-20T04:18:56;98859.81;;;8.25;86.85
21401;BME280;18038;50.166;18.908;2023-05-20T04:22:11;98857.50;;;8.30;86.37
21401;BME280;18038;50.166;18.908;2023-05-20T04:25:18;98845.59;;;8.43;86.26
21401;BME280;18038;50.166;18.908;2023-05-20T04:28:25;98855.94;;;8.54;85.78
21401;BME280;18038;50.166;18.908;2023-05-20T04:31:33;98860.94;;;8.57;85.05
21401;BME280;18038;50.166;18.908;2023-05-20T04:34:46;98860.44;;;8.53;85.53
21401;BME280;18038;50.166;18.908;2023-05-20T04:38:02;98846.47;;;8.68;85.24
21401;BME280;18038;50.166;18.908;2023-05-20T04:41:09;98841.28;;;8.66;84.75
21401;BME280;18038;50.166;18.908;2023-05-20T04:44:16;98840.66;;;8.72;84.61
21401;BME280;18038;50.166;18.908;2023-05-20T04:47:22;98841.16;;;8.76;84.63
21401;BME280;18038;50.166;18.908;2023-05-20T04:50:44;98839.38;;;8.93;84.19
21401;BME280;18038;50.166;18.908;2023-05-20T04:54:07;98840.25;;;9.02;83.59
21401;BME280;18038;50.166;18.908;2023-05-20T04:57:28;98851.06;;;9.08;83.52
21401;BME280;18038;50.166;18.908;2023-05-20T05:00:37;98846.06;;;9.13;83.53
21401;BME280;18038;50.166;18.908;2023-05-20T05:03:45;98843.94;;;9.17;83.44
21401;BME280;18038;50.166;18.908;2023-05-20T05:06:56;98846.41;;;9.18;83.09
21401;BME280;18038;50.166;18.908;2023-05-20T05:10:06;98854.94;;;9.22;83.51
21401;BME280;18038;50.166;18.908;2023-05-20T05:13:17;98842.09;;;9.26;83.02
21401;BME280;18038;50.166;18.908;2023-05-20T05:16:23;98844.75;;;9.26;83.41
21401;BME280;18038;50.166;18.908;2023-05-20T05:19:30;98844.91;;;9.32;83.26
21401;BME280;18038;50.166;18.908;2023-05-20T05:22:52;98845.78;;;9.33;82.78
21401;BME280;18038;50.166;18.908;2023-05-20T05:26:18;98840.75;;;9.22;83.64
21401;BME280;18038;50.166;18.908;2023-05-20T05:29:39;98839.75;;;9.31;83.33
21401;BME280;18038;50.166;18.908;2023-05-20T05:33:01;98838.25;;;9.28;83.20
21401;BME280;18038;50.166;18.908;2023-05-20T05:36:23;98839.75;;;9.39;82.98
21401;BME280;18038;50.166;18.908;2023-05-20T05:39:45;98837.78;;;9.33;84.07
21401;BME280;18038;50.166;18.908;2023-05-20T05:43:09;98842.06;;;9.50;83.06
21401;BME280;18038;50.166;18.908;2023-05-20T05:46:31;98838.75;;;9.40;83.16
21401;BME280;18038;50.166;18.908;2023-05-20T05:49:54;98835.41;;;9.62;82.46
21401;BME280;18038;50.166;18.908;2023-05-20T05:53:29;98841.75;;;9.70;82.58
21401;BME280;18038;50.166;18.908;2023-05-20T05:56:51;98849.06;;;9.68;82.44
21401;BME280;18038;50.166;18.908;2023-05-20T06:00:18;98845.56;;;9.75;82.15
21401;BME280;18038;50.166;18.908;2023-05-20T06:03:40;98841.88;;;9.76;82.60
21401;BME280;18038;50.166;18.908;2023-05-20T06:07:02;98842.69;;;9.85;81.73
21401;BME280;18038;50.166;18.908;2023-05-20T06:10:23;98841.50;;;9.96;81.46
21401;BME280;18038;50.166;18.908;2023-05-20T06:13:44;98840.97;;;10.08;80.80
21401;BME280;18038;50.166;18.908;2023-05-20T06:17:08;98831.94;;;10.18;80.37
21401;BME280;18038;50.166;18.908;2023-05-20T06:20:30;98816.75;;;10.18;80.12
21401;BME280;18038;50.166;18.908;2023-05-20T06:23:52;98827.94;;;10.14;80.44
21401;BME280;18038;50.166;18.908;2023-05-20T06:27:13;98824.59;;;10.12;80.46
21401;BME280;18038;50.166;18.908;2023-05-20T06:30:34;98825.03;;;10.40;79.54
21401;BME280;18038;50.166;18.908;2023-05-20T06:34:00;98825.38;;;10.37;79.39
21401;BME280;18038;50.166;18.908;2023-05-20T06:37:25;98827.97;;;10.53;78.92
21401;BME280;18038;50.166;18.908;2023-05-20T06:40:32;98827.81;;;10.55;79.30
21401;BME280;18038;50.166;18.908;2023-05-20T06:43:46;98831.56;;;10.68;78.53
21401;BME280;18038;50.166;18.908;2023-05-20T06:47:19;98833.47;;;10.83;78.11
21401;BME280;18038;50.166;18.908;2023-05-20T06:50:29;98821.84;;;10.99;77.25
21401;BME280;18038;50.166;18.908;2023-05-20T06:53:37;98831.63;;;10.83;78.42
21401;BME280;18038;50.166;18.908;2023-05-20T06:56:49;98832.69;;;11.20;77.05
21401;BME280;18038;50.166;18.908;2023-05-20T06:59:57;98839.13;;;10.88;77.67
21401;BME280;18038;50.166;18.908;2023-05-20T07:03:21;98827.56;;;11.18;76.73
21401;BME280;18038;50.166;18.908;2023-05-20T07:06:45;98818.34;;;11.21;76.57
21401;BME280;18038;50.166;18.908;2023-05-20T07:10:07;98829.56;;;11.16;77.23
21401;BME280;18038;50.166;18.908;2023-05-20T07:13:29;98819.63;;;11.25;76.75
21401;BME280;18038;50.166;18.908;2023-05-20T07:16:50;98821.19;;;11.20;77.04
21401;BME280;18038;50.166;18.908;2023-05-20T07:20:18;98811.81;;;11.38;76.44
21401;BME280;18038;50.166;18.908;2023-05-20T07:23:59;98805.50;;;11.54;76.34
21401;BME280;18038;50.166;18.908;2023-05-20T07:27:05;98801.91;;;11.62;75.51
21401;BME280;18038;50.166;18.908;2023-05-20T07:30:13;98809.34;;;11.52;75.85
21401;BME280;18038;50.166;18.908;2023-05-20T07:33:27;98812.03;;;11.52;75.82
21401;BME280;18038;50.166;18.908;2023-05-20T07:36:35;98801.34;;;11.52;75.53
21401;BME280;18038;50.166;18.908;2023-05-20T07:39:44;98810.44;;;11.80;74.91
21401;BME280;18038;50.166;18.908;2023-05-20T07:42:52;98823.78;;;12.18;74.27
21401;BME280;18038;50.166;18.908;2023-05-20T07:46:01;98821.72;;;12.20;73.96
21401;BME280;18038;50.166;18.908;2023-05-20T07:49:08;98817.66;;;12.24;72.93
21401;BME280;18038;50.166;18.908;2023-05-20T07:52:15;98809.44;;;12.11;73.48
21401;BME280;18038;50.166;18.908;2023-05-20T07:55:24;98804.22;;;12.39;73.55
21401;BME280;18038;50.166;18.908;2023-05-20T07:58:40;98804.72;;;12.28;73.27
21401;BME280;18038;50.166;18.908;2023-05-20T08:01:47;98810.63;;;12.23;73.19
21401;BME280;18038;50.166;18.908;2023-05-20T08:04:55;98801.09;;;12.36;73.54
21401;BME280;18038;50.166;18.908;2023-05-20T08:08:02;98802.44;;;12.61;72.53
21401;BME280;18038;50.166;18.908;2023-05-20T08:11:22;98788.94;;;12.69;72.25
21401;BME280;18038;50.166;18.908;2023-05-20T08:14:29;98797.31;;;13.03;71.33
21401;BME280;18038;50.166;18.908;2023-05-20T08:17:52;98784.81;;;13.10;70.93
21401;BME280;18038;50.166;18.908;2023-05-20T08:21:14;98780.44;;;13.30;69.97
21401;BME280;18038;50.166;18.908;2023-05-20T08:24:35;98777.06;;;13.43;69.75
21401;BME280;18038;50.166;18.908;2023-05-20T08:28:00;98777.78;;;13.58;69.21
21401;BME280;18038;50.166;18.908;2023-05-20T08:31:25;98780.00;;;13.83;68.34
21401;BME280;18038;50.166;18.908;2023-05-20T08:34:57;98781.34;;;14.00;67.88
21401;BME280;18038;50.166;18.908;2023-05-20T08:38:26;98781.88;;;14.24;66.89
21401;BME280;18038;50.166;18.908;2023-05-20T08:41:47;98787.09;;;14.32;67.13
21401;BME280;18038;50.166;18.908;2023-05-20T08:45:16;98772.63;;;14.33;66.32
21401;BME280;18038;50.166;18.908;2023-05-20T08:48:45;98787.34;;;14.51;66.49
21401;BME280;18038;50.166;18.908;2023-05-20T08:52:10;98783.56;;;14.25;66.86
21401;BME280;18038;50.166;18.908;2023-05-20T08:55:37;98780.53;;;14.41;66.85
21401;BME280;18038;50.166;18.908;2023-05-20T08:59:03;98783.72;;;14.78;65.07
21401;BME280;18038;50.166;18.908;2023-05-20T09:02:27;98781.56;;;14.54;66.41
21401;BME280;18038;50.166;18.908;2023-05-20T09:05:48;98785.44;;;14.93;65.18
21401;BME280;18038;50.166;18.908;2023-05-20T09:09:09;98781.69;;;14.87;65.18
21401;BME280;18038;50.166;18.908;2023-05-20T09:12:31;98778.72;;;14.68;65.94
21401;BME280;18038;50.166;18.908;2023-05-20T09:15:52;98780.91;;;15.00;65.67
21401;BME280;18038;50.166;18.908;2023-05-20T09:19:16;98787.06;;;14.80;65.22
21401;BME280;18038;50.166;18.908;2023-05-20T09:22:40;98778.28;;;14.58;66.37
21401;BME280;18038;50.166;18.908;2023-05-20T09:26:03;98773.97;;;14.57;66.79
21401;BME280;18038;50.166;18.908;2023-05-20T09:29:25;98775.03;;;14.76;66.64
21401;BME280;18038;50.166;18.908;2023-05-20T09:32:51;98769.75;;;14.96;65.51
21401;BME280;18038;50.166;18.908;2023-05-20T09:36:16;98764.13;;;14.98;65.76
21401;BME280;18038;50.166;18.908;2023-05-20T09:39:45;98757.09;;;15.03;65.02
21401;BME280;18038;50.166;18.908;2023-05-20T09:43:01;98764.50;;;14.81;66.03
21401;BME280;18038;50.166;18.908;2023-05-20T09:46:09;98760.22;;;15.33;65.06
21401;BME280;18038;50.166;18.908;2023-05-20T09:49:17;98761.72;;;16.21;63.34
21401;BME280;18038;50.166;18.908;2023-05-20T09:52:27;98762.06;;;16.38;62.73
21401;BME280;18038;50.166;18.908;2023-05-20T09:55:35;98765.53;;;16.90;60.17
21401;BME280;18038;50.166;18.908;2023-05-20T09:58:43;98762.66;;;16.85;60.06
21401;BME280;18038;50.166;18.908;2023-05-20T10:05:18;98765.69;;;17.27;59.91
21401;BME280;18038;50.166;18.908;2023-05-20T10:08:55;98761.47;;;17.81;58.46
21401;BME280;18038;50.166;18.908;2023-05-20T10:12:23;98758.16;;;17.29;59.93
21401;BME280;18038;50.166;18.908;2023-05-20T10:15:46;98756.72;;;18.32;57.42
21401;BME280;18038;50.166;18.908;2023-05-20T10:19:13;98755.91;;;18.31;56.05
21401;BME280;18038;50.166;18.908;2023-05-20T10:22:31;98752.31;;;17.64;57.52
21401;BME280;18038;50.166;18.908;2023-05-20T10:25:49;98748.59;;;17.33;58.09
21401;BME280;18038;50.166;18.908;2023-05-20T10:28:57;98750.53;;;17.51;58.53
21401;BME280;18038;50.166;18.908;2023-05-20T10:32:04;98749.31;;;17.90;57.37
21401;BME280;18038;50.166;18.908;2023-05-20T10:35:10;98747.63;;;18.45;56.38
21401;BME280;18038;50.166;18.908;2023-05-20T10:38:17;98738.38;;;18.52;55.33
21401;BME280;18038;50.166;18.908;2023-05-20T10:41:29;98734.63;;;18.83;53.03
21401;BME280;18038;50.166;18.908;2023-05-20T10:44:46;98721.22;;;19.00;53.32
21401;BME280;18038;50.166;18.908;2023-05-20T10:48:23;98717.75;;;19.12;52.70
21401;BME280;18038;50.166;18.908;2023-05-20T10:51:35;98719.78;;;19.40;52.93
21401;BME280;18038;50.166;18.908;2023-05-20T10:54:43;98720.34;;;19.54;53.03
21401;BME280;18038;50.166;18.908;2023-05-20T10:57:56;98720.47;;;19.70;53.24
21401;BME280;18038;50.166;18.908;2023-05-20T11:01:04;98723.06;;;19.42;52.70
21401;BME280;18038;50.166;18.908;2023-05-20T11:04:12;98709.88;;;19.81;52.23
21401;BME280;18038;50.166;18.908;2023-05-20T11:07:25;98718.66;;;19.88;52.43
21401;BME280;18038;50.166;18.908;2023-05-20T11:10:33;98715.47;;;18.97;53.82
21401;BME280;18038;50.166;18.908;2023-05-20T11:13:42;98706.06;;;18.09;55.58
21401;BME280;18038;50.166;18.908;2023-05-20T11:16:52;98703.16;;;18.59;55.39
21401;BME280;18038;50.166;18.908;2023-05-20T11:20:02;98701.50;;;19.35;53.84
21401;BME280;18038;50.166;18.908;2023-05-20T11:23:12;98694.09;;;19.66;53.05
21401;BME280;18038;50.166;18.908;2023-05-20T11:26:20;98683.16;;;19.37;53.13
21401;BME280;18038;50.166;18.908;2023-05-20T11:29:29;98687.72;;;19.13;54.14
21401;BME280;18038;50.166;18.908;2023-05-20T11:32:37;98690.09;;;19.45;53.02
21401;BME280;18038;50.166;18.908;2023-05-20T11:35:44;98689.25;;;18.55;55.18
21401;BME280;18038;50.166;18.908;2023-05-20T11:38:52;98685.53;;;18.38;56.10
21401;BME280;18038;50.166;18.908;2023-05-20T11:41:58;98677.53;;;18.73;55.59
21401;BME280;18038;50.166;18.908;2023-05-20T11:45:23;98682.31;;;18.11;56.28
21401;BME280;18038;50.166;18.908;2023-05-20T11:48:50;98671.81;;;18.21;57.19
21401;BME280;18038;50.166;18.908;2023-05-20T11:52:12;98667.34;;;18.27;56.57
21401;BME280;18038;50.166;18.908;2023-05-20T11:55:43;98664.34;;;18.35;56.34
21401;BME280;18038;50.166;18.908;2023-05-20T11:59:07;98661.97;;;18.57;56.03
21401;BME280;18038;50.166;18.908;2023-05-20T12:02:32;98669.88;;;18.40;55.89
21401;BME280;18038;50.166;18.908;2023-05-20T12:05:40;98662.91;;;19.40;53.53
21401;BME280;18038;50.166;18.908;2023-05-20T12:08:46;98656.06;;;19.37;53.07
21401;BME280;18038;50.166;18.908;2023-05-20T12:12:15;98660.00;;;18.88;54.22
21401;BME280;18038;50.166;18.908;2023-05-20T12:15:21;98653.09;;;19.15;54.39
21401;BME280;18038;50.166;18.908;2023-05-20T12:18:31;98643.94;;;19.40;53.49
21401;BME280;18038;50.166;18.908;2023-05-20T12:21:37;98644.97;;;19.27;53.26
21401;BME280;18038;50.166;18.908;2023-05-20T12:24:46;98638.75;;;19.26;54.46
21401;BME280;18038;50.166;18.908;2023-05-20T12:27:55;98642.13;;;18.75;54.86
21401;BME280;18038;50.166;18.908;2023-05-20T12:31:16;98629.06;;;18.30;55.81
21401;BME280;18038;50.166;18.908;2023-05-20T12:34:47;98621.75;;;18.60;55.92
21401;BME280;18038;50.166;18.908;2023-05-20T12:38:10;98613.19;;;18.87;55.59
21401;BME280;18038;50.166;18.908;2023-05-20T12:41:31;98630.34;;;18.69;55.85
21401;BME280;18038;50.166;18.908;2023-05-20T12:44:52;98618.00;;;18.73;55.54
21401;BME280;18038;50.166;18.908;2023-05-20T12:47:59;98626.50;;;18.89;56.01
21401;BME280;18038;50.166;18.908;2023-05-20T12:51:08;98618.91;;;18.55;56.60
21401;BME280;18038;50.166;18.908;2023-05-20T12:54:16;98613.00;;;18.47;57.17
21401;BME280;18038;50.166;18.908;2023-05-20T12:57:26;98619.97;;;18.54;56.94
21401;BME280;18038;50.166;18.908;2023-05-20T13:00:34;98617.97;;;18.50;57.55
21401;BME280;18038;50.166;18.908;2023-05-20T13:03:40;98612.94;;;18.23;56.71
21401;BME280;18038;50.166;18.908;2023-05-20T13:06:50;98607.63;;;18.58;56.63
21401;BME280;18038;50.166;18.908;2023-05-20T13:09:57;98612.25;;;18.39;56.89
21401;BME280;18038;50.166;18.908;2023-05-20T13:13:18;98607.47;;;18.42;56.82
21401;BME280;18038;50.166;18.908;2023-05-20T13:16:40;98604.69;;;18.60;57.07
21401;BME280;18038;50.166;18.908;2023-05-20T13:20:01;98600.38;;;18.82;57.18
21401;BME280;18038;50.166;18.908;2023-05-20T13:23:25;98605.19;;;19.16;56.33
21401;BME280;18038;50.166;18.908;2023-05-20T13:26:46;98598.16;;;18.91;54.94
21401;BME280;18038;50.166;18.908;2023-05-20T13:29:57;98599.81;;;19.04;56.16
21401;BME280;18038;50.166;18.908;2023-05-20T13:33:03;98589.78;;;19.16;55.15
21401;BME280;18038;50.166;18.908;2023-05-20T13:36:10;98590.50;;;19.12;55.71
21401;BME280;18038;50.166;18.908;2023-05-20T13:39:19;98589.41;;;19.01;55.46
21401;BME280;18038;50.166;18.908;2023-05-20T13:42:27;98588.03;;;18.87;55.99
21401;BME280;18038;50.166;18.908;2023-05-20T13:45:33;98582.72;;;18.92;56.10
21401;BME280;18038;50.166;18.908;2023-05-20T13:48:39;98579.69;;;18.88;55.85
21401;BME280;18038;50.166;18.908;2023-05-20T13:51:46;98584.97;;;18.83;55.08
21401;BME280;18038;50.166;18.908;2023-05-20T13:54:58;98571.41;;;18.71;55.27
21401;BME280;18038;50.166;18.908;2023-05-20T13:58:07;98564.59;;;18.92;55.51
21401;BME280;18038;50.166;18.908;2023-05-20T14:05:14;98558.72;;;19.31;55.14
21401;BME280;18038;50.166;18.908;2023-05-20T14:08:21;98543.97;;;19.26;54.20
21401;BME280;18038;50.166;18.908;2023-05-20T14:11:49;98545.28;;;19.36;54.72
21401;BME280;18038;50.166;18.908;2023-05-20T14:15:10;98552.56;;;19.47;54.57
21401;BME280;18038;50.166;18.908;2023-05-20T14:18:31;98543.03;;;19.21;54.35
21401;BME280;18038;50.166;18.908;2023-05-20T14:21:52;98533.03;;;19.21;54.38
21401;BME280;18038;50.166;18.908;2023-05-20T14:25:15;98534.69;;;19.22;55.16
21401;BME280;18038;50.166;18.908;2023-05-20T14:28:25;98535.38;;;19.30;54.72
21401;BME280;18038;50.166;18.908;2023-05-20T14:31:31;98534.31;;;19.42;54.78
21401;BME280;18038;50.166;18.908;2023-05-20T14:34:38;98530.50;;;19.55;54.18
21401;BME280;18038;50.166;18.908;2023-05-20T14:37:44;98527.31;;;19.58;54.47
21401;BME280;18038;50.166;18.908;2023-05-20T14:40:51;98528.09;;;19.70;52.93
21401;BME280;18038;50.166;18.908;2023-05-20T14:44:00;98514.16;;;19.79;52.90
21401;BME280;18038;50.166;18.908;2023-05-20T14:47:06;98519.47;;;19.74;51.58
21401;BME280;18038;50.166;18.908;2023-05-20T14:50:13;98522.84;;;20.09;51.20
21401;BME280;18038;50.166;18.908;2023-05-20T14:53:20;98522.56;;;19.94;51.21
21401;BME280;18038;50.166;18.908;2023-05-20T14:56:27;98514.34;;;19.89;51.80
21401;BME280;18038;50.166;18.908;2023-05-20T14:59:36;98519.41;;;20.14;52.37
21401;BME280;18038;50.166;18.908;2023-05-20T15:02:43;98520.19;;;19.98;51.07
21401;BME280;18038;50.166;18.908;2023-05-20T15:05:50;98508.81;;;20.12;51.60
21401;BME280;18038;50.166;18.908;2023-05-20T15:08:56;98512.84;;;20.27;51.64
21401;BME280;18038;50.166;18.908;2023-05-20T15:12:09;98501.66;;;20.40;50.47
21401;BME280;18038;50.166;18.908;2023-05-20T15:15:26;98503.41;;;20.29;48.93
21401;BME280;18038;50.166;18.908;2023-05-20T15:18:34;98494.41;;;20.12;49.07
21401;BME280;18038;50.166;18.908;2023-05-20T15:21:40;98494.19;;;20.13;49.49
21401;BME280;18038;50.166;18.908;2023-05-20T15:27:53;98483.03;;;19.81;48.77
21401;BME280;18038;50.166;18.908;2023-05-20T15:31:02;98482.19;;;20.09;47.59
21401;BME280;18038;50.166;18.908;2023-05-20T15:34:09;98481.84;;;20.23;47.77
21401;BME280;18038;50.166;18.908;2023-05-20T15:37:16;98484.44;;;20.12;48.53
21401;BME280;18038;50.166;18.908;2023-05-20T15:40:23;98489.84;;;20.29;48.64
21401;BME280;18038;50.166;18.908;2023-05-20T15:43:30;98486.31;;;20.29;48.46
21401;BME280;18038;50.166;18.908;2023-05-20T15:46:39;98482.53;;;20.30;48.43
21401;BME280;18038;50.166;18.908;2023-05-20T15:49:46;98490.31;;;20.43;48.59
21401;BME280;18038;50.166;18.908;2023-05-20T15:52:53;98489.16;;;20.56;48.58
21401;BME280;18038;50.166;18.908;2023-05-20T15:56:05;98491.56;;;20.52;48.98
21401;BME280;18038;50.166;18.908;2023-05-20T15:59:27;98483.56;;;20.46;49.21
21401;BME280;18038;50.166;18.908;2023-05-20T16:02:52;98483.69;;;20.34;48.96
21401;BME280;18038;50.166;18.908;2023-05-20T16:06:18;98492.44;;;20.41;48.92
21401;BME280;18038;50.166;18.908;2023-05-20T16:09:39;98482.88;;;20.33;49.05
21401;BME280;18038;50.166;18.908;2023-05-20T16:13:06;98477.81;;;20.25;49.81
21401;BME280;18038;50.166;18.908;2023-05-20T16:16:26;98483.34;;;20.13;50.17
21401;BME280;18038;50.166;18.908;2023-05-20T16:19:54;98473.00;;;19.82;51.36
21401;BME280;18038;50.166;18.908;2023-05-20T16:23:15;98481.56;;;19.90;50.74
21401;BME280;18038;50.166;18.908;2023-05-20T16:26:37;98481.63;;;19.79;50.83
21401;BME280;18038;50.166;18.908;2023-05-20T16:29:58;98484.09;;;19.80;51.37
21401;BME280;18038;50.166;18.908;2023-05-20T16:33:19;98471.47;;;19.86;52.08
21401;BME280;18038;50.166;18.908;2023-05-20T16:36:43;98471.19;;;19.70;52.42
21401;BME280;18038;50.166;18.908;2023-05-20T16:39:50;98471.69;;;19.67;53.29
21401;BME280;18038;50.166;18.908;2023-05-20T16:42:58;98458.91;;;19.51;53.02
21401;BME280;18038;50.166;18.908;2023-05-20T16:46:09;98472.22;;;19.53;53.50
21401;BME280;18038;50.166;18.908;2023-05-20T16:49:16;98474.31;;;19.62;53.63
21401;BME280;18038;50.166;18.908;2023-05-20T16:52:25;98474.53;;;19.61;53.90
21401;BME280;18038;50.166;18.908;2023-05-20T16:55:31;98479.34;;;19.59;54.57
21401;BME280;18038;50.166;18.908;2023-05-20T16:58:52;98489.66;;;19.45;54.66
21401;BME280;18038;50.166;18.908;2023-05-20T17:02:13;98472.88;;;19.19;54.98
21401;BME280;18038;50.166;18.908;2023-05-20T17:05:34;98476.31;;;19.15;55.54
21401;BME280;18038;50.166;18.908;2023-05-20T17:08:58;98483.72;;;19.31;55.58
21401;BME280;18038;50.166;18.908;2023-05-20T17:12:21;98482.91;;;19.31;55.44
21401;BME280;18038;50.166;18.908;2023-05-20T17:15:42;98483.97;;;19.18;55.74
21401;BME280;18038;50.166;18.908;2023-05-20T17:18:51;98489.50;;;19.11;56.30
21401;BME280;18038;50.166;18.908;2023-05-20T17:21:58;98485.63;;;19.07;56.70